Elkins-Randolph Co-Jennings Randolph Field Elkins US
ICAO: KEKN
IATA: EKN
Category: Medium
Scheduled Services: No

Elevation: 1987 ft
TransAlt. 18000 ft.

Airport Communications:
CLARKSBURG APP/DEP:121.15
ASOS:119.275
CTAF:123.6
RDO:122.2

KEKN Zoom In..

If you have problems with the map follow the link
https://www.worldairports.se/pages/airport.php?
ICAO=KEKN

Runways:

(A) RW 05 length 4501 ft width 140 ft
---- / hdg 46

(B) RW 14 length 4544 ft width 140 ft
---- / hdg 136

(C) RW 23 length 4501 ft width 140 ft
---- / hdg 226

(D) RW 32 length 4544 ft width 140 ft
---- / hdg 316

Location; KEKN
Day. 18 / Time. 01.51 Zulu
* Altimeter: 29.72
* Temperature: 08° c. 46.4°f.
* Wind from: 180° Speed 10 kn.
Dewpoint: 06° c.
Visibility: 10 Statute Miles.
Clouds: Overcast 6500 ft.
Conditions: Light Rain.

KEKN 180151Z AUTO 18010KT 10SM -RA OVC065 08/06 A2972 RMK AO2 SLP081 P0004 T00780056 TSNO


Wind From 180°
Speed 10 kn.

 
 
jpsmedia.com for Web Design worldairports.se 2019   terms of use